Pagrindinis puslapis
METAR-TAF:

METAR-TAF

Oro uostai :

Al Maktumo tarptautinis oro uostas

Dubajus, Jungtiniai Arabų Emyratai

platuma: 24-53-49N, ilguma: 55-09-40E, Aukštis: 35 m

Dabartinis oras

Ataskaita buvo paskelbta 31 minutes, ne 02:00 UTC
Vėjas 4 kt iš Rytų
Temperatūra 21°C
Drėgmė 53%
Slėgis 1010 hPa
Matomumas 10 km arba daugiau
nėra debesų žemiau 1500 m ir nėra kamuolinių lietaus debesų

METAR: OMDW 090200Z 10004KT CAVOK 21/11 Q1010 NOSIG

Laikas: 06:31 (02:31 UTC)

Prognozė

Ataskaita buvo paskelbta 3 valandos ir 30 minutes, ne 23:01 UTC
Prognozė galioja nuo 09 metu 00 UTC su 10 metu 06 UTC
Vėjas 6 kt iš Rytų/Pietryčių
Matomumas 10 km arba daugiau
nėra debesų žemiau 1500 m ir nėra kamuolinių lietaus debesų
Tapsmas
nuo 09 metu 09 UTC su 09 metu 11 UTC
Vėjas 14 kt iš Šiaurės
Tapsmas
nuo 09 metu 15 UTC su 09 metu 17 UTC
Vėjas 5 kt iš Rytų

TAF: OMDW 082301Z 0900/1006 11006KT CAVOK BECMG 0909/0911 35014KT BECMG 0915/0917 10005KT

Orai ataskaitas ir orų prognozės (METAR, TAF).

turimą stotys yra geltonos ir raudonos taškus žemėlapyje.

Perkelti pele per norėdami pamatyti stoties vardą.

Tada spustelėkite, norėdami matyti oro stebėjimo ir prognozės.

Norėdami pakeisti žemėlapį: spustelėkite ant žalios mygtukų su juodo kryžiaus žemyn,; žalią mygtuką su brūkšneliu, jei norite nutolinti; arba žalių rodyklių gretimoms žemėlapius.


METAR-TAF: